createdAt,value
2018-06-04T00:02:04.013Z,73.40
2018-06-04T00:04:32.747Z,73.40
2018-06-04T00:07:01.564Z,73.60
2018-06-04T00:09:30.342Z,73.60
2018-06-04T00:11:59.128Z,74.30
2018-06-04T00:14:27.869Z,73.50
2018-06-04T00:16:56.647Z,73.80
2018-06-04T00:19:25.478Z,73.80
2018-06-04T00:21:54.204Z,73.70
2018-06-04T00:26:51.482Z,74.30
2018-06-04T00:29:20.226Z,74.20
2018-06-04T00:31:48.996Z,74.40
2018-06-04T00:34:17.808Z,74.80
2018-06-04T00:36:53.176Z,75.00
2018-06-04T00:39:21.970Z,75.30
2018-06-04T00:44:19.229Z,75.30
2018-06-04T00:46:48.001Z,75.10
2018-06-04T00:49:16.776Z,74.90
2018-06-04T00:51:45.523Z,75.10
2018-06-04T00:54:14.284Z,75.20
2018-06-04T00:56:43.108Z,75.10
2018-06-04T00:59:11.843Z,75.00
2018-06-04T01:01:40.601Z,75.30
2018-06-04T01:04:09.332Z,75.40
2018-06-04T01:06:38.111Z,75.50
2018-06-04T01:09:08.092Z,75.70
2018-06-04T01:11:36.874Z,75.40
2018-06-04T01:14:05.654Z,75.20
2018-06-04T01:16:34.425Z,75.00
2018-06-04T01:19:03.189Z,75.10
2018-06-04T01:21:31.968Z,74.90
2018-06-04T01:24:00.734Z,75.10
2018-06-04T01:26:29.542Z,75.30
2018-06-04T01:28:58.278Z,75.60
2018-06-04T01:31:27.068Z,76.00
2018-06-04T01:33:55.844Z,76.10
2018-06-04T01:38:53.064Z,75.50
2018-06-04T01:41:21.851Z,75.40
2018-06-04T01:43:50.698Z,75.10
2018-06-04T01:46:19.456Z,75.20
2018-06-04T01:48:48.192Z,75.30
2018-06-04T01:51:16.986Z,75.20
2018-06-04T01:53:45.750Z,75.30
2018-06-04T01:56:14.510Z,75.70
2018-06-04T01:58:43.344Z,76.10
2018-06-04T02:01:12.084Z,76.20
2018-06-04T02:03:40.853Z,76.40
2018-06-04T02:06:09.608Z,76.30
2018-06-04T02:08:38.373Z,76.30
2018-06-04T02:11:07.156Z,76.50
2018-06-04T02:16:04.969Z,76.50
2018-06-04T02:18:33.718Z,76.50
2018-06-04T02:21:02.508Z,76.50
2018-06-04T02:23:31.367Z,76.60
2018-06-04T02:26:00.143Z,76.50
2018-06-04T02:28:28.897Z,76.10
2018-06-04T02:30:57.671Z,75.80
2018-06-04T02:35:55.001Z,76.10
2018-06-04T02:38:23.748Z,76.30
2018-06-04T02:43:21.006Z,76.20
2018-06-04T02:45:49.729Z,76.10
2018-06-04T02:48:18.493Z,76.40
2018-06-04T02:50:47.305Z,76.70
2018-06-04T02:53:16.070Z,76.60
2018-06-04T02:55:44.857Z,76.40
2018-06-04T03:03:10.534Z,76.20
2018-06-04T03:05:39.302Z,76.20
2018-06-04T03:08:08.058Z,76.20
2018-06-04T03:10:36.861Z,76.10
2018-06-04T03:13:05.840Z,76.00
2018-06-04T03:15:34.588Z,76.00
2018-06-04T03:18:03.333Z,76.00
2018-06-04T03:20:32.179Z,76.00
2018-06-04T03:23:00.930Z,75.80
2018-06-04T03:25:29.713Z,75.90
2018-06-04T03:27:58.460Z,75.80
2018-06-04T03:30:27.234Z,75.80
2018-06-04T03:32:55.988Z,75.90
2018-06-04T03:35:24.832Z,75.90
2018-06-04T03:37:53.597Z,76.00
2018-06-04T03:40:22.320Z,76.10
2018-06-04T03:45:19.566Z,76.40
2018-06-04T03:47:48.357Z,76.40
2018-06-04T03:50:17.105Z,76.90
2018-06-04T03:52:45.856Z,77.10
2018-06-04T03:55:14.621Z,77.10
2018-06-04T03:57:43.366Z,77.10
2018-06-04T04:00:12.106Z,77.00
2018-06-04T04:02:40.858Z,77.20
2018-06-04T04:05:09.989Z,77.20
2018-06-04T04:07:38.761Z,77.30
2018-06-04T04:10:08.313Z,77.40
2018-06-04T04:12:37.177Z,77.50
2018-06-04T04:15:05.985Z,77.50
2018-06-04T04:17:34.859Z,77.60
2018-06-04T04:20:03.631Z,77.60
2018-06-04T04:22:32.416Z,77.50
2018-06-04T04:25:01.203Z,77.70
2018-06-04T04:27:29.909Z,77.70
2018-06-04T04:29:58.693Z,77.50
2018-06-04T04:32:27.464Z,77.60
2018-06-04T04:35:01.781Z,78.10
2018-06-04T04:37:30.573Z,78.30
2018-06-04T04:39:59.304Z,78.00
2018-06-04T04:47:26.121Z,77.90
2018-06-04T04:49:54.915Z,77.60
2018-06-04T04:52:23.707Z,77.40
2018-06-04T04:54:52.469Z,77.20
2018-06-04T04:57:21.286Z,77.10
2018-06-04T04:59:50.035Z,77.10
2018-06-04T05:02:18.822Z,77.10
2018-06-04T05:04:47.580Z,77.20
2018-06-04T05:07:16.329Z,77.00
2018-06-04T05:09:45.112Z,77.20
2018-06-04T05:12:18.329Z,78.00
2018-06-04T05:14:47.095Z,77.10
2018-06-04T05:17:15.886Z,76.70
2018-06-04T05:19:44.753Z,76.50
2018-06-04T05:22:13.519Z,76.00
2018-06-04T05:27:10.758Z,76.10
2018-06-04T05:29:39.743Z,75.80
2018-06-04T05:32:08.482Z,75.60
2018-06-04T05:34:37.300Z,75.60
2018-06-04T05:37:06.165Z,75.50
2018-06-04T05:42:04.520Z,73.70
2018-06-04T05:44:33.307Z,73.90
2018-06-04T05:47:02.072Z,73.40
2018-06-04T05:49:31.828Z,73.40
2018-06-04T05:52:00.574Z,73.20
2018-06-04T05:54:29.419Z,73.20
2018-06-04T05:59:26.652Z,73.20
2018-06-04T06:01:55.401Z,73.40
2018-06-04T06:04:24.153Z,73.30
2018-06-04T06:06:52.898Z,72.90
2018-06-04T06:09:21.637Z,72.10
2018-06-04T06:19:16.742Z,71.60
2018-06-04T06:21:45.563Z,71.60
2018-06-04T06:24:14.333Z,71.80
2018-06-04T06:26:43.346Z,71.50
2018-06-04T06:29:12.068Z,71.80
2018-06-04T06:31:40.833Z,71.80
2018-06-04T06:34:09.589Z,71.30
2018-06-04T06:36:38.992Z,71.10
2018-06-04T06:39:08.677Z,71.20
2018-06-04T06:41:37.761Z,71.30
2018-06-04T06:44:06.552Z,71.20
2018-06-04T06:46:35.281Z,71.90
2018-06-04T06:49:04.050Z,70.50
2018-06-04T06:51:32.805Z,70.40
2018-06-04T06:54:01.591Z,70.60
2018-06-04T06:56:30.322Z,70.40
2018-06-04T06:58:59.125Z,69.90
2018-06-04T07:01:27.898Z,70.00
2018-06-04T07:03:56.672Z,69.50
2018-06-04T07:06:25.507Z,70.20
2018-06-04T07:08:54.375Z,69.70
2018-06-04T07:11:23.123Z,68.60
2018-06-04T07:16:20.315Z,67.10
2018-06-04T07:18:49.223Z,67.40
2018-06-04T07:21:18.037Z,67.30
2018-06-04T07:23:46.841Z,66.90
2018-06-04T07:28:44.033Z,67.30
2018-06-04T07:31:12.787Z,67.20
2018-06-04T07:33:41.575Z,66.90
2018-06-04T07:36:11.155Z,66.70
2018-06-04T07:38:40.553Z,66.50
2018-06-04T07:41:09.379Z,66.30
2018-06-04T07:43:38.078Z,65.90
2018-06-04T07:46:06.857Z,66.40
2018-06-04T07:51:04.057Z,66.20
2018-06-04T07:53:32.795Z,66.30
2018-06-04T07:56:02.930Z,66.40
2018-06-04T07:58:31.671Z,65.90
2018-06-04T08:01:00.411Z,66.50
2018-06-04T08:05:57.683Z,65.30
2018-06-04T08:10:54.965Z,65.50
2018-06-04T08:13:23.747Z,65.10
2018-06-04T08:18:21.020Z,64.60
2018-06-04T08:20:49.829Z,64.40
2018-06-04T08:23:18.572Z,64.50
2018-06-04T08:25:47.312Z,64.20
2018-06-04T08:28:16.096Z,64.50
2018-06-04T08:30:44.840Z,64.50
2018-06-04T08:33:13.604Z,64.90
2018-06-04T08:35:42.367Z,64.40
2018-06-04T08:38:11.100Z,63.70
2018-06-04T08:40:39.839Z,64.10
2018-06-04T08:43:08.577Z,64.00
2018-06-04T08:45:37.324Z,63.30
2018-06-04T08:48:06.078Z,63.50
2018-06-04T08:53:03.336Z,63.50
2018-06-04T08:58:00.555Z,64.30
2018-06-04T09:00:29.365Z,63.70
2018-06-04T09:02:58.119Z,61.80
2018-06-04T09:05:28.100Z,62.00
2018-06-04T09:07:56.945Z,62.20
2018-06-04T09:10:25.712Z,60.60
2018-06-04T09:12:54.457Z,61.00
2018-06-04T09:15:23.233Z,61.00
2018-06-04T09:17:52.070Z,61.00
2018-06-04T09:22:49.407Z,60.30
2018-06-04T09:25:18.153Z,59.30
2018-06-04T09:27:47.409Z,58.70
2018-06-04T09:37:42.813Z,59.90
2018-06-04T09:40:11.489Z,59.70
2018-06-04T09:42:40.335Z,59.40
2018-06-04T09:45:09.108Z,59.90
2018-06-04T09:47:37.840Z,59.90
2018-06-04T09:50:06.613Z,59.90
2018-06-04T09:52:35.368Z,60.20
2018-06-04T09:55:04.124Z,60.90
2018-06-04T09:57:32.889Z,60.50
2018-06-04T10:00:01.688Z,60.90
2018-06-04T10:02:30.537Z,60.40
2018-06-04T10:04:59.372Z,60.40
2018-06-04T10:07:28.136Z,60.30
2018-06-04T10:14:53.858Z,58.20
2018-06-04T10:17:22.616Z,57.30
2018-06-04T10:19:51.373Z,57.80
2018-06-04T10:24:48.635Z,57.40
2018-06-04T10:29:45.833Z,58.80
2018-06-04T10:32:14.633Z,58.20
2018-06-04T10:34:43.382Z,58.40
2018-06-04T10:39:40.597Z,58.40
2018-06-04T10:42:09.417Z,58.40
2018-06-04T10:44:38.156Z,58.40
2018-06-04T10:47:06.917Z,57.10
2018-06-04T10:52:04.105Z,56.90
2018-06-04T10:54:32.867Z,56.60
2018-06-04T10:59:30.091Z,56.10
2018-06-04T11:01:59.183Z,55.20
2018-06-04T11:04:27.961Z,54.50
2018-06-04T11:06:56.688Z,54.70
2018-06-04T11:09:25.445Z,55.40
2018-06-04T11:11:54.267Z,55.50
2018-06-04T11:14:23.005Z,56.00
2018-06-04T11:16:51.763Z,55.50
2018-06-04T11:19:20.515Z,54.70
2018-06-04T11:21:49.386Z,55.70
2018-06-04T11:24:18.172Z,56.00
2018-06-04T11:26:46.915Z,55.60
2018-06-04T11:31:44.122Z,55.20
2018-06-04T11:34:12.889Z,55.60
2018-06-04T11:36:41.631Z,55.50
2018-06-04T11:39:10.868Z,55.00
2018-06-04T11:44:08.056Z,54.80
2018-06-04T11:46:36.835Z,53.70
2018-06-04T11:49:05.565Z,53.40
2018-06-04T11:51:34.315Z,53.70
2018-06-04T11:54:03.083Z,54.70
2018-06-04T11:56:31.898Z,54.60
2018-06-04T11:59:00.677Z,54.80
2018-06-04T12:01:29.425Z,54.30
2018-06-04T12:03:58.226Z,54.30
2018-06-04T12:06:26.972Z,54.20
2018-06-04T12:08:55.839Z,54.00
2018-06-04T12:11:24.731Z,54.00
2018-06-04T12:13:53.461Z,54.30
2018-06-04T12:16:22.225Z,54.60
2018-06-04T12:18:50.960Z,55.00
2018-06-04T12:21:19.806Z,55.20
2018-06-04T12:23:48.593Z,54.50
2018-06-04T12:26:17.357Z,54.90
2018-06-04T12:28:46.103Z,54.30
2018-06-04T12:31:14.871Z,54.70
2018-06-04T12:33:44.111Z,54.80
2018-06-04T12:36:12.890Z,54.70
2018-06-04T12:38:41.652Z,54.90
2018-06-04T12:41:10.390Z,55.10
2018-06-04T12:43:39.233Z,54.30
2018-06-04T12:46:07.966Z,54.80
2018-06-04T12:48:36.679Z,55.70
2018-06-04T12:51:05.522Z,55.70
2018-06-04T12:53:34.315Z,56.80
2018-06-04T12:56:03.148Z,55.30
2018-06-04T12:58:31.897Z,56.10
2018-06-04T13:01:00.642Z,56.30
2018-06-04T13:03:29.388Z,56.90
2018-06-04T13:08:26.603Z,55.30
2018-06-04T13:10:55.351Z,54.90
2018-06-04T13:13:24.217Z,55.70
2018-06-04T13:15:52.931Z,53.90
2018-06-04T13:18:21.733Z,55.20
2018-06-04T13:20:50.535Z,55.20
2018-06-04T13:23:19.305Z,54.60
2018-06-04T13:25:48.065Z,54.50
2018-06-04T13:30:45.379Z,54.30
2018-06-04T13:33:14.207Z,54.70
2018-06-04T13:35:42.972Z,54.10
2018-06-04T13:38:11.780Z,54.20
2018-06-04T13:40:40.608Z,53.50
2018-06-04T13:45:42.277Z,52.80
2018-06-04T13:48:12.010Z,52.50
2018-06-04T13:50:40.797Z,51.60
2018-06-04T13:53:09.562Z,51.90
2018-06-04T13:58:06.815Z,53.00
2018-06-04T14:00:35.589Z,53.00
2018-06-04T14:03:04.333Z,52.80
2018-06-04T14:05:33.096Z,52.80
2018-06-04T14:15:27.301Z,53.20
2018-06-04T14:17:56.081Z,53.20
2018-06-04T14:20:24.808Z,53.70
2018-06-04T14:27:50.577Z,52.50
2018-06-04T14:30:19.352Z,52.50
2018-06-04T14:37:45.174Z,53.30
2018-06-04T14:40:13.946Z,52.70
2018-06-04T14:42:42.733Z,52.00
2018-06-04T14:45:11.495Z,52.20
2018-06-04T14:47:40.220Z,52.60
2018-06-04T14:50:09.107Z,52.50
2018-06-04T14:52:37.908Z,52.20
2018-06-04T14:55:06.687Z,52.60
2018-06-04T14:57:35.434Z,52.90
2018-06-04T15:00:04.286Z,52.20
2018-06-04T15:02:33.070Z,51.90
2018-06-04T15:05:01.828Z,52.00
2018-06-04T15:07:30.557Z,52.20
2018-06-04T15:09:59.369Z,52.50
2018-06-04T15:14:56.542Z,52.80
2018-06-04T15:17:25.281Z,52.80
2018-06-04T15:19:54.004Z,53.30
2018-06-04T15:22:22.778Z,53.30
2018-06-04T15:24:51.554Z,52.30
2018-06-04T15:27:20.264Z,52.30
2018-06-04T15:29:49.021Z,51.60
2018-06-04T15:32:17.795Z,52.00
2018-06-04T15:34:46.497Z,52.30
2018-06-04T15:37:15.245Z,52.10
2018-06-04T15:39:44.027Z,52.50
2018-06-04T15:42:12.803Z,52.50
2018-06-04T15:44:41.536Z,52.80
2018-06-04T15:47:10.258Z,53.00
2018-06-04T15:49:39.039Z,53.10
2018-06-04T15:52:07.838Z,52.70
2018-06-04T15:57:05.008Z,53.00
2018-06-04T16:02:02.468Z,53.90
2018-06-04T16:04:31.473Z,54.10
2018-06-04T16:07:00.291Z,54.70
2018-06-04T16:09:29.118Z,54.50
2018-06-04T16:11:57.885Z,54.60
2018-06-04T16:16:55.047Z,54.60
2018-06-04T16:19:23.815Z,54.60
2018-06-04T16:21:52.606Z,54.40
2018-06-04T16:24:21.368Z,54.30
2018-06-04T16:26:50.097Z,54.50
2018-06-04T16:29:18.823Z,54.60
2018-06-04T16:31:47.567Z,53.50
2018-06-04T16:34:16.475Z,53.90
2018-06-04T16:36:45.207Z,53.50
2018-06-04T16:39:13.965Z,53.00
2018-06-04T16:41:42.791Z,52.40
2018-06-04T16:46:42.711Z,53.70
2018-06-04T16:49:15.670Z,54.00
2018-06-04T16:51:44.478Z,53.90
2018-06-04T16:54:13.348Z,54.40
2018-06-04T16:56:42.406Z,53.40
2018-06-04T16:59:13.413Z,54.30
2018-06-04T17:01:42.261Z,54.30
2018-06-04T17:04:11.198Z,54.40
2018-06-04T17:06:40.021Z,53.70
2018-06-04T17:09:08.792Z,53.80
2018-06-04T17:14:06.142Z,53.40
2018-06-04T17:16:34.886Z,53.60
2018-06-04T17:19:03.725Z,52.90
2018-06-04T17:21:32.571Z,53.10
2018-06-04T17:24:01.368Z,53.40
2018-06-04T17:26:30.115Z,53.40
2018-06-04T17:31:27.378Z,52.70
2018-06-04T17:36:24.715Z,52.70
2018-06-04T17:38:53.514Z,52.00
2018-06-04T17:41:22.283Z,52.20
2018-06-04T17:43:51.025Z,52.30
2018-06-04T17:48:48.219Z,51.70
2018-06-04T17:51:16.964Z,51.50
2018-06-04T17:53:45.710Z,51.80
2018-06-04T17:56:14.579Z,51.70
2018-06-04T17:58:43.351Z,51.20
2018-06-04T18:01:12.158Z,50.90
2018-06-04T18:03:40.902Z,51.00
2018-06-04T18:06:09.678Z,51.00
2018-06-04T18:08:38.486Z,51.20
2018-06-04T18:11:07.311Z,50.60
2018-06-04T18:13:36.079Z,50.80
2018-06-04T18:16:04.950Z,51.10
2018-06-04T18:18:33.739Z,50.60
2018-06-04T18:21:02.633Z,50.70
2018-06-04T18:23:31.399Z,50.70
2018-06-04T18:26:00.155Z,50.90
2018-06-04T18:28:28.921Z,51.00
2018-06-04T18:30:57.674Z,50.30
2018-06-04T18:33:26.440Z,49.60
2018-06-04T18:35:55.202Z,49.00
2018-06-04T18:38:23.940Z,48.70
2018-06-04T18:40:52.856Z,48.80
2018-06-04T18:45:50.085Z,49.50
2018-06-04T18:48:18.873Z,50.00
2018-06-04T18:50:47.648Z,50.40
2018-06-04T18:53:16.371Z,50.80
2018-06-04T18:55:45.116Z,51.00
2018-06-04T18:58:13.859Z,51.40
2018-06-04T19:03:11.165Z,52.00
2018-06-04T19:05:39.873Z,52.30
2018-06-04T19:08:08.623Z,52.50
2018-06-04T19:13:12.615Z,52.60
2018-06-04T19:15:41.390Z,52.80
2018-06-04T19:18:10.167Z,52.90
2018-06-04T19:20:38.892Z,53.00
2018-06-04T19:23:07.704Z,53.00
2018-06-04T19:25:36.456Z,53.20
2018-06-04T19:28:05.557Z,53.50
2018-06-04T19:30:34.377Z,53.60
2018-06-04T19:35:31.564Z,54.40
2018-06-04T19:38:01.255Z,55.20
2018-06-04T19:40:30.073Z,55.50
2018-06-04T19:42:58.949Z,56.20
2018-06-04T19:45:27.707Z,56.70
2018-06-04T19:47:56.571Z,57.50
2018-06-04T19:50:25.468Z,58.20
2018-06-04T19:52:54.190Z,58.50
2018-06-04T19:55:23.010Z,58.70
2018-06-04T19:57:51.974Z,58.80
2018-06-04T20:00:20.770Z,59.20
2018-06-04T20:02:49.584Z,59.40
2018-06-04T20:05:18.328Z,59.60
2018-06-04T20:10:15.561Z,60.10
2018-06-04T20:12:44.393Z,60.20
2018-06-04T20:17:41.660Z,60.40
2018-06-04T20:20:10.398Z,60.40
2018-06-04T20:22:39.226Z,60.70
2018-06-04T20:25:07.998Z,60.60
2018-06-04T20:27:36.724Z,60.70
2018-06-04T20:30:05.789Z,61.00
2018-06-04T20:32:34.552Z,61.10
2018-06-04T20:35:03.360Z,61.30
2018-06-04T20:37:32.095Z,61.70
2018-06-04T20:40:00.862Z,61.80
2018-06-04T20:42:29.628Z,61.80
2018-06-04T20:44:58.431Z,61.80
2018-06-04T20:47:27.277Z,62.10
2018-06-04T20:49:56.110Z,62.30
2018-06-04T20:52:24.856Z,62.40
2018-06-04T20:54:53.693Z,62.40
2018-06-04T20:59:50.924Z,62.70
2018-06-04T21:02:19.716Z,62.80
2018-06-04T21:04:48.572Z,62.90
2018-06-04T21:07:17.378Z,63.00
2018-06-04T21:09:46.198Z,63.10
2018-06-04T21:12:15.011Z,63.30
2018-06-04T21:14:43.817Z,63.70
2018-06-04T21:17:12.654Z,63.60
2018-06-04T21:19:41.541Z,63.90
2018-06-04T21:22:10.417Z,64.10
2018-06-04T21:24:39.459Z,64.20
2018-06-04T21:27:08.319Z,64.40
2018-06-04T21:29:37.145Z,64.60
2018-06-04T21:32:05.963Z,64.70
2018-06-04T21:34:34.753Z,64.60
2018-06-04T21:37:03.593Z,64.50
2018-06-04T21:39:32.370Z,64.60
2018-06-04T21:42:01.170Z,64.90
2018-06-04T21:44:29.939Z,65.20
2018-06-04T21:46:58.744Z,65.20
2018-06-04T21:49:27.558Z,64.90
2018-06-04T21:51:56.356Z,65.10
2018-06-04T21:54:25.132Z,65.10
2018-06-04T21:56:53.849Z,65.50
2018-06-04T21:59:22.654Z,66.20
2018-06-04T22:01:51.439Z,65.60
2018-06-04T22:04:20.220Z,65.80
2018-06-04T22:06:48.991Z,65.80
2018-06-04T22:11:46.216Z,65.50
2018-06-04T22:14:14.961Z,65.50
2018-06-04T22:16:43.881Z,65.70
2018-06-04T22:19:12.591Z,65.90
2018-06-04T22:21:41.435Z,65.60
2018-06-04T22:24:10.308Z,65.60
2018-06-04T22:31:36.042Z,65.60
2018-06-04T22:36:33.419Z,66.70
2018-06-04T22:39:02.183Z,65.90
2018-06-04T22:41:30.939Z,65.90
2018-06-04T22:43:59.791Z,65.90
2018-06-04T22:48:57.015Z,66.80
2018-06-04T22:51:25.779Z,67.30
2018-06-04T22:53:54.559Z,67.60
2018-06-04T22:56:23.450Z,67.30
2018-06-04T22:58:52.215Z,68.00
2018-06-04T23:01:20.998Z,67.30
2018-06-04T23:03:49.786Z,67.20
2018-06-04T23:06:18.528Z,67.30
2018-06-04T23:08:47.335Z,67.60
2018-06-04T23:11:16.063Z,67.70
2018-06-04T23:13:44.849Z,68.10
2018-06-04T23:18:42.084Z,67.60
2018-06-04T23:21:10.881Z,67.40
2018-06-04T23:23:39.645Z,67.40
2018-06-04T23:26:08.413Z,67.20
2018-06-04T23:28:37.144Z,67.10
2018-06-04T23:31:05.932Z,67.00
2018-06-04T23:33:34.697Z,67.30
2018-06-04T23:36:03.457Z,67.40
2018-06-04T23:38:32.217Z,67.40
2018-06-04T23:41:00.983Z,67.60
2018-06-04T23:43:29.740Z,67.60
2018-06-04T23:45:58.499Z,67.70
2018-06-04T23:50:55.732Z,68.10
2018-06-04T23:53:24.471Z,68.40
2018-06-04T23:55:53.233Z,68.30
